VABP/BHO METAR and TAF weather

Enter ICAO airport designator
Station Type Date Time Source
VABP METAR 2019/12/14 18:00 UTC NOAA

VABP 141800Z 02005KT 3500 HZ BKN100 17/15 Q1019 NOSIG


Station Type Date Time Source
VABP Decoded METAR 2019/12/14 18:00 UTC NOAA

Bhopal / Bairagarh, India (VABP) 23-17N 077-21E 523M
Dec 14, 2019 - 01:00 PM EST / 2019.12.14 1800 UTC
Wind: from the NNE (020 degrees) at 6 MPH (5 KT):0
Visibility: 2 mile(s):0
Sky conditions: mostly cloudy
Weather: haze
Temperature: 62 F (17 C)
Dew Point: 59 F (15 C)
Relative Humidity: 88%
Pressure (altimeter): 30.09 in. Hg (1019 hPa)
ob: VABP 141800Z 02005KT 3500 HZ BKN100 17/15 Q1019 NOSIG
cycle: 18

Station Type Date Time Source
VABP TAF 2019/04/18 06:00 UTC NOAA

TAF VABP 180500Z 1806/1815 32008KT 6000 FEW030

Example: see airport list